Time;durP1;ratioP1;P1;durP2;ratioP2;P2;SDS_P1;SDS_P2;PMS_P1;PMS_P2;Temp;Humidity;BMP_temperature;BMP_pressure;BME280_temperature;BME280_humidity;BME280_pressure;Samples;Min_cycle;Max_cycle;Signal;HPM_P1;HPM_P2
2021/09/22 00:00:00;;;;;;;29.10;17.38;;;;;;;13.97;73.32;103099.34;5037283;28;20036;-49
2021/09/22 00:02:26;;;;;;;34.92;18.35;;;;;;;13.99;73.20;103117.78;5041715;28;20169;-48
2021/09/22 00:04:51;;;;;;;28.25;16.70;;;;;;;13.97;73.28;103115.09;5046865;28;20070;-49
2021/09/22 00:07:16;;;;;;;30.75;16.75;;;;;;;13.94;73.43;103112.38;5040906;28;20048;-49
2021/09/22 00:09:42;;;;;;;33.45;18.63;;;;;;;13.92;73.48;103108.78;5019270;28;20062;-50
2021/09/22 00:12:07;;;;;;;31.73;18.15;;;;;;;13.92;73.32;103106.16;5039153;28;20070;-52
2021/09/22 00:14:32;;;;;;;30.63;17.92;;;;;;;13.90;73.40;103102.63;5046937;28;20046;-49
2021/09/22 00:16:58;;;;;;;32.65;18.20;;;;;;;13.87;73.36;103109.47;5047740;28;20385;-50
2021/09/22 00:19:23;;;;;;;33.05;19.58;;;;;;;13.85;73.37;103109.41;5048131;28;20754;-52
2021/09/22 00:21:48;;;;;;;39.65;23.10;;;;;;;13.81;73.80;103108.44;5041698;28;20059;-49
2021/09/22 00:24:14;;;;;;;39.00;20.98;;;;;;;13.82;73.86;103107.59;5045198;28;20133;-47
2021/09/22 00:26:39;;;;;;;34.35;19.25;;;;;;;13.84;73.83;103110.28;5047470;28;20409;-51
2021/09/22 00:29:04;;;;;;;40.85;21.00;;;;;;;13.89;73.58;103107.81;5048232;28;20072;-49
2021/09/22 00:31:34;;;;;;;45.45;25.10;;;;;;;13.87;74.26;103109.47;5045918;28;20633;-51
2021/09/22 00:34:00;;;;;;;41.42;21.23;;;;;;;13.87;73.97;103107.75;5027938;28;20075;-49
2021/09/22 00:36:25;;;;;;;39.10;21.00;;;;;;;13.86;73.73;103091.94;5046779;28;20452;-52
2021/09/22 00:38:51;;;;;;;35.28;18.75;;;;;;;13.86;73.95;103097.19;5049417;28;20040;-51
2021/09/22 00:41:16;;;;;;;38.53;20.63;;;;;;;13.86;73.91;103103.34;5047556;28;20032;-49
2021/09/22 00:43:41;;;;;;;38.17;22.38;;;;;;;13.83;73.97;103098.00;5040494;28;20056;-50
2021/09/22 00:46:07;;;;;;;38.58;21.33;;;;;;;13.87;73.81;103106.84;5052074;28;20157;-52
2021/09/22 00:48:33;;;;;;;39.45;21.92;;;;;;;13.88;73.83;103103.41;5029795;28;20476;-51
2021/09/22 00:51:02;;;;;;;45.83;23.48;;;;;;;13.85;74.07;103108.50;5045593;28;20417;-49
2021/09/22 00:53:27;;;;;;;51.15;26.75;;;;;;;13.79;74.48;103096.09;5045953;28;20401;-50
2021/09/22 00:55:53;;;;;;;44.92;24.10;;;;;;;13.80;74.19;103103.13;5040672;28;20029;-49
2021/09/22 00:58:18;;;;;;;43.50;23.35;;;;;;;13.80;74.42;103100.50;5033553;28;20153;-50
2021/09/22 01:00:44;;;;;;;51.10;24.70;;;;;;;13.81;74.34;103105.81;5045229;28;20446;-49
2021/09/22 01:03:09;;;;;;;42.70;21.50;;;;;;;13.84;74.33;103109.38;5048679;28;20355;-52
2021/09/22 01:05:37;;;;;;;45.40;22.42;;;;;;;13.86;74.21;103107.69;5024654;28;20451;-54
2021/09/22 01:08:05;;;;;;;43.28;22.25;;;;;;;13.85;74.06;103104.16;5046817;28;20047;-52
2021/09/22 01:10:31;;;;;;;68.80;30.75;;;;;;;13.79;74.64;103099.59;5045406;28;20519;-49
2021/09/22 01:12:57;;;;;;;55.15;26.67;;;;;;;13.80;74.83;103095.25;5047593;28;20074;-51
2021/09/22 01:15:36;;;;;;;54.78;25.63;;;;;;;13.78;74.94;103100.44;5046598;28;20050;-48
2021/09/22 01:18:03;;;;;;;59.42;28.40;;;;;;;13.79;75.20;103093.47;5045887;28;20565;-50
2021/09/22 01:20:31;;;;;;;51.92;25.77;;;;;;;13.80;75.03;103087.38;5027604;28;20604;-50
2021/09/22 01:22:57;;;;;;;54.53;25.67;;;;;;;13.83;74.90;103090.13;5047764;28;20056;-49
2021/09/22 01:25:22;;;;;;;57.30;26.63;;;;;;;13.82;74.99;103088.34;5044832;28;20637;-52
2021/09/22 01:27:54;;;;;;;61.33;28.15;;;;;;;13.93;74.86;103083.47;5037470;28;20043;-48
2021/09/22 01:30:19;;;;;;;53.22;25.73;;;;;;;13.91;75.03;103082.50;5046421;28;20760;-49
2021/09/22 01:32:49;;;;;;;60.28;26.17;;;;;;;13.90;75.07;103091.25;5045294;28;20056;-47
2021/09/22 01:35:15;;;;;;;61.28;26.30;;;;;;;13.86;74.78;103089.31;5043301;28;20319;-47
2021/09/22 01:37:40;;;;;;;62.72;28.13;;;;;;;13.82;75.32;103094.47;5040504;28;20051;-52
2021/09/22 01:40:07;;;;;;;60.45;26.52;;;;;;;13.85;75.01;103092.78;5047450;28;20044;-51
2021/09/22 01:42:32;;;;;;;63.20;27.90;;;;;;;13.81;74.92;103084.81;5028819;28;20041;-50
2021/09/22 01:44:57;;;;;;;57.75;25.88;;;;;;;13.78;74.89;103095.19;5047880;28;20048;-48
2021/09/22 01:47:23;;;;;;;54.05;23.30;;;;;;;13.77;74.71;103087.28;5047786;28;20070;-51
2021/09/22 01:49:48;;;;;;;59.78;26.52;;;;;;;13.77;75.22;103089.91;5041809;28;20048;-47
2021/09/22 01:52:13;;;;;;;65.78;27.98;;;;;;;13.75;75.38;103082.00;5038271;28;20059;-51
2021/09/22 01:54:39;;;;;;;74.03;29.58;;;;;;;13.81;75.13;103079.59;5044317;28;20131;-52
2021/09/22 01:57:04;;;;;;;73.28;28.88;;;;;;;13.82;74.99;103086.63;5044817;28;20044;-48
2021/09/22 01:59:29;;;;;;;63.65;25.50;;;;;;;13.84;74.90;103089.31;5046404;28;20189;-50
2021/09/22 02:01:55;;;;;;;55.67;24.38;;;;;;;13.85;74.96;103087.53;5035167;28;21492;-52
2021/09/22 02:04:20;;;;;;;56.15;23.10;;;;;;;13.83;74.82;103092.75;5044925;28;20043;-47
2021/09/22 02:06:45;;;;;;;52.22;23.55;;;;;;;13.80;74.63;103093.53;5045761;28;20444;-49
2021/09/22 02:09:11;;;;;;;52.63;22.23;;;;;;;13.78;74.62;103097.81;5045255;28;20107;-51
2021/09/22 02:11:36;;;;;;;59.38;25.58;;;;;;;13.76;74.95;103093.38;5044376;28;20048;-48
2021/09/22 02:14:02;;;;;;;49.22;20.90;;;;;;;13.79;74.77;103083.88;5041173;28;20044;-57
2021/09/22 02:16:27;;;;;;;59.72;24.83;;;;;;;13.76;74.77;103072.41;5045723;28;20119;-47
2021/09/22 02:18:52;;;;;;;60.45;25.05;;;;;;;13.71;74.97;103071.34;5048875;28;20114;-48
2021/09/22 02:21:18;;;;;;;73.30;29.67;;;;;;;13.68;74.91;103065.97;5044791;28;20360;-50
2021/09/22 02:23:43;;;;;;;58.75;24.52;;;;;;;13.72;74.91;103063.50;5038062;28;20063;-48
2021/09/22 02:26:08;;;;;;;67.78;28.08;;;;;;;13.75;75.30;103054.88;5042136;28;20465;-47
2021/09/22 02:28:34;;;;;;;58.67;23.75;;;;;;;13.76;74.97;103056.66;5042822;28;20033;-48
2021/09/22 02:30:59;;;;;;;51.80;22.10;;;;;;;13.74;74.92;103064.47;5027196;28;20046;-46
2021/09/22 02:33:25;;;;;;;58.03;24.30;;;;;;;13.74;75.00;103066.19;5044768;28;20040;-48
2021/09/22 02:35:50;;;;;;;66.20;27.05;;;;;;;13.77;75.25;103064.59;5037970;28;20142;-50
2021/09/22 02:38:16;;;;;;;64.47;25.55;;;;;;;13.80;75.10;103056.81;5044724;28;20043;-47
2021/09/22 02:40:42;;;;;;;53.97;23.50;;;;;;;13.82;75.00;103055.16;5023791;28;20044;-47
2021/09/22 02:43:07;;;;;;;75.80;29.10;;;;;;;13.81;75.55;103052.47;5039984;28;20165;-47
2021/09/22 02:45:32;;;;;;;56.30;24.70;;;;;;;13.86;75.06;103053.50;5044221;28;20101;-49
2021/09/22 02:47:58;;;;;;;70.00;29.13;;;;;;;13.86;75.74;103057.88;5038408;28;20319;-50
2021/09/22 02:50:24;;;;;;;65.70;27.02;;;;;;;13.91;75.28;103056.28;5044978;28;20459;-47
2021/09/22 02:52:49;;;;;;;58.97;24.25;;;;;;;13.93;75.04;103060.75;5043076;28;20040;-52
2021/09/22 02:55:14;;;;;;;72.05;29.02;;;;;;;13.98;75.34;103053.03;5044107;28;20479;-49
2021/09/22 02:57:39;;;;;;;65.85;25.95;;;;;;;13.95;75.17;103052.94;5038765;28;20049;-49
2021/09/22 03:00:06;;;;;;;60.90;25.40;;;;;;;13.93;75.16;103052.00;5046434;28;20051;-47
2021/09/22 03:02:32;;;;;;;68.68;27.77;;;;;;;13.97;74.80;103048.63;5023862;28;20124;-50
2021/09/22 03:04:57;;;;;;;74.75;29.15;;;;;;;13.92;75.59;103055.47;5042607;28;20055;-48
2021/09/22 03:07:23;;;;;;;64.80;27.27;;;;;;;13.98;75.22;103047.78;5043271;28;20293;-48
2021/09/22 03:09:48;;;;;;;65.60;27.30;;;;;;;14.03;75.25;103043.59;5037082;28;20144;-50
2021/09/22 03:12:13;;;;;;;65.20;26.67;;;;;;;14.11;74.96;103044.75;5048223;28;20059;-48
2021/09/22 03:14:39;;;;;;;66.18;28.05;;;;;;;14.11;74.87;103039.50;5043564;28;20148;-47
2021/09/22 03:17:04;;;;;;;69.43;27.92;;;;;;;14.07;75.30;103040.25;5041452;28;20059;-47
2021/09/22 03:19:29;;;;;;;64.60;26.90;;;;;;;14.07;75.02;103040.25;5042797;28;20611;-49
2021/09/22 03:21:55;;;;;;;66.85;27.67;;;;;;;14.02;75.04;103036.59;5037192;28;20731;-48
2021/09/22 03:24:20;;;;;;;63.90;26.17;;;;;;;13.95;74.97;103037.22;5043980;28;20044;-49
2021/09/22 03:26:45;;;;;;;62.90;27.23;;;;;;;13.95;74.83;103034.59;5044214;28;20075;-49
2021/09/22 03:29:11;;;;;;;68.53;26.85;;;;;;;13.89;75.00;103029.16;5025824;28;20040;-52
2021/09/22 03:31:36;;;;;;;52.30;22.45;;;;;;;13.88;74.91;103032.59;5041263;28;20052;-47
2021/09/22 03:34:02;;;;;;;61.13;24.08;;;;;;;13.85;74.95;103030.75;5042341;28;20748;-50
2021/09/22 03:36:27;;;;;;;59.45;24.25;;;;;;;13.85;74.88;103027.22;5044899;28;20633;-51
2021/09/22 03:38:52;;;;;;;67.88;26.80;;;;;;;13.83;75.06;103024.59;5046053;28;20464;-53
2021/09/22 03:41:18;;;;;;;60.33;25.58;;;;;;;13.79;74.86;103022.69;5045263;28;20563;-49
2021/09/22 03:43:43;;;;;;;54.05;22.35;;;;;;;13.75;74.91;103028.66;5034623;28;20049;-50
2021/09/22 03:46:08;;;;;;;58.33;23.65;;;;;;;13.76;75.07;103023.47;5041760;28;20060;-48
2021/09/22 03:48:34;;;;;;;62.35;26.70;;;;;;;13.73;75.08;103011.97;5045143;28;20076;-50
2021/09/22 03:50:59;;;;;;;68.90;27.50;;;;;;;13.71;74.88;103009.34;5053236;28;20158;-48
2021/09/22 03:53:24;;;;;;;73.30;28.30;;;;;;;13.71;75.51;103011.94;5047223;28;21304;-49
2021/09/22 03:55:50;;;;;;;60.72;25.58;;;;;;;13.72;74.94;103013.72;5037131;28;20040;-47
2021/09/22 03:58:16;;;;;;;52.53;22.00;;;;;;;13.69;74.99;103020.59;5046548;28;20504;-47
2021/09/22 04:00:42;;;;;;;54.20;23.02;;;;;;;13.66;74.78;103016.13;5030478;28;20322;-50
2021/09/22 04:03:07;;;;;;;66.25;26.85;;;;;;;13.67;74.89;103017.00;5052284;28;20412;-47
2021/09/22 04:05:36;;;;;;;72.80;28.30;;;;;;;13.70;75.10;103020.66;5047483;28;20134;-49
2021/09/22 04:08:01;;;;;;;70.00;28.15;;;;;;;13.77;75.15;103016.50;5046310;28;20384;-49
2021/09/22 04:10:26;;;;;;;58.03;25.83;;;;;;;13.81;75.16;103019.28;5043166;28;20492;-50
2021/09/22 04:12:52;;;;;;;64.35;25.02;;;;;;;13.77;75.11;103017.41;5046830;28;20049;-49
2021/09/22 04:15:17;;;;;;;54.75;23.23;;;;;;;13.76;74.91;103014.72;5044574;28;20537;-46
2021/09/22 04:17:42;;;;;;;60.88;25.50;;;;;;;13.77;74.82;103022.66;5041959;28;20584;-51
2021/09/22 04:20:09;;;;;;;63.97;26.92;;;;;;;13.85;74.53;103022.00;5029429;28;20573;-49
2021/09/22 04:22:34;;;;;;;63.67;27.67;;;;;;;13.86;75.01;103014.19;5050065;28;20399;-47
2021/09/22 04:25:00;;;;;;;77.18;30.27;;;;;;;13.83;75.36;103008.84;5052521;28;20032;-48
2021/09/22 04:27:25;;;;;;;74.45;28.95;;;;;;;13.76;75.35;103015.63;5025886;28;20113;-48
2021/09/22 04:29:50;;;;;;;67.22;27.63;;;;;;;13.85;75.06;103022.00;5036405;28;20040;-48
2021/09/22 04:32:16;;;;;;;57.92;23.95;;;;;;;13.80;74.94;103019.22;5050580;28;20181;-49
2021/09/22 04:34:41;;;;;;;60.38;25.15;;;;;;;13.73;75.09;103017.22;5030242;28;20475;-48
2021/09/22 04:37:08;;;;;;;51.75;23.55;;;;;;;13.70;74.79;103023.28;5054623;28;20268;-47
2021/09/22 04:39:33;;;;;;;60.78;24.52;;;;;;;13.68;74.75;103021.41;5043714;28;20091;-49
2021/09/22 04:41:59;;;;;;;57.97;23.60;;;;;;;13.67;74.57;103019.63;5025781;28;20052;-48
2021/09/22 04:44:25;;;;;;;56.30;23.73;;;;;;;13.66;74.79;103026.59;5042798;28;20186;-48
2021/09/22 04:46:50;;;;;;;62.50;27.13;;;;;;;13.71;75.09;103021.53;5046721;28;20507;-53
2021/09/22 04:49:16;;;;;;;67.20;27.80;;;;;;;13.79;74.93;103030.53;5022941;28;20048;-51
2021/09/22 04:51:41;;;;;;;62.55;23.88;;;;;;;13.79;75.03;103030.53;5043478;28;20063;-49
2021/09/22 04:54:06;;;;;;;67.68;25.60;;;;;;;13.81;75.21;103026.25;5046522;28;20518;-49
2021/09/22 04:56:32;;;;;;;72.93;28.63;;;;;;;13.82;75.30;103031.56;5045217;28;20044;-50
2021/09/22 04:58:57;;;;;;;63.65;24.75;;;;;;;13.87;75.60;103033.44;5045006;28;20521;-51
2021/09/22 05:01:22;;;;;;;80.22;29.45;;;;;;;13.90;75.62;103020.44;5047184;28;20493;-51
2021/09/22 05:03:48;;;;;;;68.22;26.65;;;;;;;13.97;75.39;103028.53;5039231;28;20504;-49
2021/09/22 05:06:13;;;;;;;69.78;27.50;;;;;;;13.99;75.53;103029.50;5048212;28;20120;-51
2021/09/22 05:08:39;;;;;;;59.88;24.85;;;;;;;13.99;75.34;103032.13;5045791;28;20145;-51
2021/09/22 05:11:04;;;;;;;57.30;24.95;;;;;;;13.95;75.29;103032.88;5045584;28;20040;-50
2021/09/22 05:13:29;;;;;;;60.70;24.90;;;;;;;13.90;74.97;103036.19;5045323;28;20040;-47
2021/09/22 05:15:55;;;;;;;57.67;23.75;;;;;;;13.91;74.97;103032.69;5041036;28;20036;-47
2021/09/22 05:18:26;;;;;;;59.88;25.60;;;;;;;13.84;75.03;103033.34;5047124;28;20669;-52
2021/09/22 05:20:51;;;;;;;58.90;25.10;;;;;;;13.83;74.75;103040.31;5048463;28;20155;-47
2021/09/22 05:23:16;;;;;;;57.33;25.00;;;;;;;13.86;74.77;103029.03;5047607;28;20362;-51
2021/09/22 05:25:42;;;;;;;68.07;27.90;;;;;;;13.82;74.84;103033.28;5040505;28;20049;-46
2021/09/22 05:28:07;;;;;;;56.05;25.17;;;;;;;13.81;74.99;103037.63;5048806;28;20041;-53
2021/09/22 05:30:32;;;;;;;55.30;25.20;;;;;;;13.82;74.73;103035.91;5029028;28;20032;-51
2021/09/22 05:33:00;;;;;;;60.70;27.50;;;;;;;13.79;75.08;103033.16;5048177;28;20079;-51
2021/09/22 05:35:26;;;;;;;57.00;25.73;;;;;;;13.82;74.65;103034.19;5028138;28;20131;-48
2021/09/22 05:37:52;;;;;;;57.70;26.05;;;;;;;13.80;74.69;103035.84;5041387;28;20174;-47
2021/09/22 05:40:18;;;;;;;53.00;23.98;;;;;;;13.81;74.65;103034.13;5048339;28;20036;-49
2021/09/22 05:42:43;;;;;;;54.75;26.13;;;;;;;13.86;74.58;103035.16;5048929;28;20102;-48
2021/09/22 05:45:09;;;;;;;55.63;25.40;;;;;;;13.86;74.60;103039.50;5046037;28;20039;-47
2021/09/22 05:47:35;;;;;;;50.28;23.77;;;;;;;13.83;74.75;103029.84;5042056;28;20778;-49
2021/09/22 05:50:00;;;;;;;60.97;26.83;;;;;;;13.84;74.82;103033.34;5045434;28;20040;-48
2021/09/22 05:52:26;;;;;;;56.40;24.75;;;;;;;13.88;74.89;103040.47;5031234;28;20585;-48
2021/09/22 05:54:52;;;;;;;53.47;24.30;;;;;;;13.94;74.92;103041.56;5027884;28;20079;-47
2021/09/22 05:57:17;;;;;;;54.42;25.25;;;;;;;14.00;74.94;103039.16;5041083;28;20415;-49
2021/09/22 05:59:44;;;;;;;62.13;27.90;;;;;;;14.01;75.05;103038.31;5040738;28;20166;-49
2021/09/22 06:02:09;;;;;;;61.92;27.85;;;;;;;14.07;74.91;103038.53;5046829;28;20131;-53
2021/09/22 06:04:35;;;;;;;57.55;27.58;;;;;;;14.18;74.79;103041.50;5044712;28;20044;-53
2021/09/22 06:07:00;;;;;;;59.45;26.75;;;;;;;14.25;74.90;103040.88;5012534;28;20106;-53
2021/09/22 06:09:26;;;;;;;55.90;27.10;;;;;;;14.39;74.68;103046.59;5048900;28;20048;-47
2021/09/22 06:11:51;;;;;;;61.22;28.50;;;;;;;14.50;74.84;103034.72;5038980;28;20237;-51
2021/09/22 06:14:17;;;;;;;56.40;27.10;;;;;;;14.70;74.57;103036.19;5044681;28;20090;-51
2021/09/22 06:16:43;;;;;;;52.20;25.85;;;;;;;14.91;74.00;103038.59;5039857;28;20246;-50
2021/09/22 06:19:09;;;;;;;49.80;25.42;;;;;;;15.18;73.72;103033.28;5049411;28;20123;-51
2021/09/22 06:21:36;;;;;;;41.75;23.38;;;;;;;15.47;72.44;103026.19;5040013;28;20119;-51
2021/09/22 06:24:01;;;;;;;39.17;22.80;;;;;;;15.80;70.95;103019.22;5043650;28;20028;-50
2021/09/22 06:26:26;;;;;;;40.92;23.17;;;;;;;15.97;69.49;103022.31;5046448;28;20809;-49
2021/09/22 06:28:52;;;;;;;37.30;22.52;;;;;;;16.07;69.20;103025.19;5045224;28;20532;-50
2021/09/22 06:31:18;;;;;;;38.42;23.75;;;;;;;16.13;68.53;103022.72;5042213;28;20159;-50
2021/09/22 06:33:43;;;;;;;41.40;23.20;;;;;;;16.26;68.89;103029.19;5040305;28;20124;-51
2021/09/22 06:36:09;;;;;;;39.90;24.65;;;;;;;16.40;68.36;103030.41;5044868;28;20048;-51
2021/09/22 06:38:36;;;;;;;43.70;23.73;;;;;;;16.69;67.84;103032.84;5046515;28;20044;-53
2021/09/22 06:41:01;;;;;;;38.55;24.10;;;;;;;16.92;66.85;103034.22;5042807;28;20661;-49
2021/09/22 06:43:26;;;;;;;40.70;23.30;;;;;;;17.16;66.29;103029.47;5041343;28;20036;-48
2021/09/22 06:45:52;;;;;;;38.53;23.60;;;;;;;17.50;64.83;103032.78;5025397;28;20295;-51
2021/09/22 06:48:17;;;;;;;37.28;23.73;;;;;;;17.79;63.52;103029.88;5043667;28;20529;-50
2021/09/22 06:50:44;;;;;;;37.92;23.77;;;;;;;18.24;61.99;103029.72;5038338;28;20040;-46
2021/09/22 06:53:10;;;;;;;38.50;22.73;;;;;;;18.79;60.95;103032.34;5027844;28;20106;-50
2021/09/22 06:55:35;;;;;;;36.45;24.40;;;;;;;19.19;58.98;103031.09;5045587;28;20036;-52
2021/09/22 06:58:01;;;;;;;35.53;22.80;;;;;;;19.73;57.95;103028.22;5020460;28;20040;-53
2021/09/22 07:00:27;;;;;;;35.35;22.80;;;;;;;20.16;56.49;103030.38;5046238;28;20044;-48
2021/09/22 07:02:52;;;;;;;36.70;22.63;;;;;;;20.44;54.49;103028.81;5044013;28;20413;-48
2021/09/22 07:05:18;;;;;;;33.78;21.10;;;;;;;20.66;54.59;103027.22;5042167;28;20095;-49
2021/09/22 07:07:46;;;;;;;35.25;21.95;;;;;;;20.64;53.92;103019.25;5018655;28;20762;-53
2021/09/22 07:10:22;;;;;;;33.53;22.70;;;;;;;20.77;53.12;103036.09;5045954;28;20048;-51
2021/09/22 07:12:49;;;;;;;31.17;21.17;;;;;;;20.74;52.59;103036.06;5045347;28;20044;-50
2021/09/22 07:15:14;;;;;;;33.65;21.50;;;;;;;20.62;54.21;103046.59;5041756;28;20048;-53
2021/09/22 07:17:39;;;;;;;34.80;21.23;;;;;;;20.92;53.42;103053.88;5034069;28;20059;-49
2021/09/22 07:20:06;;;;;;;31.15;20.40;;;;;;;21.02;53.27;103047.72;5042880;28;20344;-52
2021/09/22 07:22:32;;;;;;;34.22;21.23;;;;;;;20.80;53.86;103046.72;5049252;28;20143;-46
2021/09/22 07:24:57;;;;;;;36.38;20.65;;;;;;;21.02;52.99;103045.97;5044411;28;20048;-48
2021/09/22 07:27:25;;;;;;;32.08;21.33;;;;;;;20.56;54.92;103051.88;5014158;28;20048;-50
2021/09/22 07:29:51;;;;;;;30.45;19.80;;;;;;;20.37;54.39;103042.03;5041418;28;20096;-49
2021/09/22 07:32:16;;;;;;;36.78;20.63;;;;;;;20.35;54.01;103038.47;5045437;28;20825;-49
2021/09/22 07:34:41;;;;;;;28.85;19.92;;;;;;;20.31;54.46;103044.63;5048192;28;20893;-50
2021/09/22 07:37:09;;;;;;;32.55;20.92;;;;;;;20.07;56.99;103043.50;5046441;28;20066;-51
2021/09/22 07:39:36;;;;;;;32.97;20.58;;;;;;;20.14;54.83;103044.44;5045584;28;20044;-49
2021/09/22 07:42:02;;;;;;;33.90;19.48;;;;;;;19.88;56.52;103040.72;5044306;28;20059;-52
2021/09/22 07:44:27;;;;;;;33.63;20.90;;;;;;;19.88;56.37;103041.59;5044195;28;21352;-48
2021/09/22 07:46:53;;;;;;;30.38;19.55;;;;;;;19.98;56.02;103047.84;5025069;28;20728;-48
2021/09/22 07:49:18;;;;;;;32.20;19.23;;;;;;;19.79;56.75;103044.16;5025623;28;20036;-50
2021/09/22 07:51:44;;;;;;;29.45;18.92;;;;;;;20.07;56.42;103034.69;5036936;28;20040;-47
2021/09/22 07:54:09;;;;;;;27.02;17.98;;;;;;;20.22;55.86;103038.34;5048434;28;20621;-49
2021/09/22 07:56:35;;;;;;;30.77;18.40;;;;;;;20.29;55.74;103036.66;5044167;28;20098;-50
2021/09/22 07:59:00;;;;;;;30.27;18.67;;;;;;;20.45;55.50;103030.59;5028936;28;20288;-50
2021/09/22 08:01:25;;;;;;;31.77;18.67;;;;;;;20.50;55.59;103028.88;5044098;28;20151;-49
2021/09/22 08:03:51;;;;;;;29.13;17.45;;;;;;;20.75;54.74;103029.00;5038274;28;20652;-50
2021/09/22 08:06:16;;;;;;;29.27;17.85;;;;;;;20.64;55.92;103021.91;5036242;28;20036;-54
2021/09/22 08:08:41;;;;;;;27.17;16.98;;;;;;;20.55;55.54;103028.91;5048834;28;20051;-52
2021/09/22 08:11:07;;;;;;;31.48;18.02;;;;;;;20.53;55.69;103018.31;5043389;28;20044;-51
2021/09/22 08:13:34;;;;;;;28.55;18.50;;;;;;;20.43;56.17;103021.75;5043473;28;20647;-50
2021/09/22 08:15:59;;;;;;;27.90;18.05;;;;;;;20.64;54.99;103026.31;5041006;28;20041;-50
2021/09/22 08:18:24;;;;;;;30.80;18.10;;;;;;;20.72;55.60;103029.00;5044313;28;20578;-52
2021/09/22 08:20:50;;;;;;;27.15;17.40;;;;;;;20.73;54.82;103031.69;5007269;28;20519;-53
2021/09/22 08:23:15;;;;;;;27.25;16.85;;;;;;;20.49;56.24;103031.53;5042878;28;20094;-49
2021/09/22 08:25:41;;;;;;;28.38;16.73;;;;;;;20.60;56.26;103036.00;5039885;28;20157;-48
2021/09/22 08:28:06;;;;;;;31.90;16.83;;;;;;;20.67;56.01;103029.84;5051980;28;20045;-50
2021/09/22 08:30:31;;;;;;;24.88;15.52;;;;;;;20.63;57.25;103021.88;5043019;28;20047;-50
2021/09/22 08:32:57;;;;;;;25.33;15.75;;;;;;;20.85;55.57;103014.94;5046383;28;20690;-52
2021/09/22 08:35:22;;;;;;;24.58;16.40;;;;;;;20.98;55.70;103022.09;5042808;28;20037;-54
2021/09/22 08:37:47;;;;;;;25.73;15.32;;;;;;;21.18;55.04;103030.13;5040831;28;20037;-48
2021/09/22 08:40:13;;;;;;;23.80;15.52;;;;;;;21.40;55.75;103026.69;5048234;28;20040;-52
2021/09/22 08:42:40;;;;;;;24.35;15.52;;;;;;;21.39;54.88;103031.09;5044646;28;20036;-52
2021/09/22 08:45:07;;;;;;;29.02;16.27;;;;;;;21.31;55.01;103030.19;5046272;28;20442;-48
2021/09/22 08:47:33;;;;;;;24.08;15.48;;;;;;;21.40;55.63;103024.91;5042160;28;20036;-52
2021/09/22 08:49:58;;;;;;;24.50;14.23;;;;;;;21.50;54.41;103025.81;5041026;28;20044;-50
2021/09/22 08:52:24;;;;;;;23.25;13.98;;;;;;;21.52;55.03;103021.41;5046736;28;20048;-51
2021/09/22 08:54:49;;;;;;;22.27;13.77;;;;;;;21.61;54.92;103033.78;5044253;28;20044;-49
2021/09/22 08:57:15;;;;;;;20.83;13.10;;;;;;;21.78;54.23;103029.38;5040895;28;20286;-52
2021/09/22 08:59:40;;;;;;;22.05;13.70;;;;;;;21.92;53.43;103024.97;5037765;28;20056;-53
2021/09/22 09:02:07;;;;;;;17.13;11.80;;;;;;;22.09;53.38;103036.53;5044095;28;20058;-54
2021/09/22 09:04:33;;;;;;;19.80;11.85;;;;;;;22.24;53.53;103031.22;5039167;28;20044;-54
2021/09/22 09:06:59;;;;;;;21.17;13.40;;;;;;;22.27;52.10;103035.63;5046529;28;20044;-52
2021/09/22 09:09:41;;;;;;;20.02;12.85;;;;;;;22.29;52.98;103032.97;5046631;28;20163;-52
2021/09/22 09:12:21;;;;;;;21.27;12.10;;;;;;;22.42;52.14;103040.03;5047267;28;20512;-52
2021/09/22 09:14:51;;;;;;;21.20;13.50;;;;;;;22.15;52.62;103028.56;5042584;28;20045;-51
2021/09/22 09:17:37;;;;;;;22.90;13.15;;;;;;;21.91;52.70;103028.50;5043181;28;20087;-49
2021/09/22 09:20:17;;;;;;;16.90;11.88;;;;;;;21.91;54.13;103027.63;5030504;28;20197;-50
2021/09/22 09:22:55;;;;;;;18.58;12.45;;;;;;;21.89;53.24;103032.06;5043935;28;20460;-52
2021/09/22 09:25:28;;;;;;;21.77;14.02;;;;;;;21.69;56.15;103019.66;5038969;28;20095;-53
2021/09/22 09:27:53;;;;;;;19.80;13.20;;;;;;;21.85;53.36;103023.19;5038064;28;20063;-51
2021/09/22 09:30:21;;;;;;;20.60;13.23;;;;;;;22.00;53.65;103014.41;5042773;28;20048;-50
2021/09/22 09:32:47;;;;;;;20.80;13.55;;;;;;;21.86;54.91;103015.25;5040656;28;20194;-54
2021/09/22 09:35:14;;;;;;;22.50;13.52;;;;;;;22.04;54.34;103013.50;5022694;28;20047;-51
2021/09/22 09:37:46;;;;;;;20.88;12.70;;;;;;;22.18;54.84;103009.97;5040800;28;20036;-52
2021/09/22 09:40:21;;;;;;;22.08;13.23;;;;;;;22.24;53.76;103007.31;5042225;28;20594;-54
2021/09/22 09:42:55;;;;;;;20.67;12.73;;;;;;;22.28;53.29;103013.47;5040291;28;20059;-53
2021/09/22 09:45:22;;;;;;;23.33;13.00;;;;;;;22.33;53.64;103008.16;5027522;28;20036;-53
2021/09/22 09:48:12;;;;;;;24.13;13.02;;;;;;;22.40;52.51;103007.25;5037417;28;20400;-49
2021/09/22 09:50:54;;;;;;;20.17;12.77;;;;;;;22.45;52.52;103003.69;5039861;28;20045;-52
2021/09/22 09:53:27;;;;;;;17.05;11.68;;;;;;;22.60;52.93;103013.44;5017327;28;20052;-51
2021/09/22 09:55:54;;;;;;;16.77;11.70;;;;;;;22.60;53.59;103021.41;5033933;28;20418;-51
2021/09/22 09:58:20;;;;;;;21.77;13.10;;;;;;;22.40;53.83;103012.56;5036124;28;20504;-50
2021/09/22 10:00:48;;;;;;;18.15;12.38;;;;;;;22.43;52.57;103013.47;5022065;28;20045;-50
2021/09/22 10:03:20;;;;;;;21.05;12.07;;;;;;;22.42;53.10;103010.81;5046175;28;20416;-50
2021/09/22 10:05:47;;;;;;;17.15;11.55;;;;;;;22.41;53.10;103009.94;5037769;28;20803;-52
2021/09/22 10:08:14;;;;;;;20.80;12.15;;;;;;;22.19;52.94;103002.88;5043921;28;20064;-51
2021/09/22 10:10:44;;;;;;;23.25;12.10;;;;;;;22.06;53.03;102998.47;5042434;28;20075;-52
2021/09/22 10:13:11;;;;;;;19.27;12.07;;;;;;;22.12;53.93;103001.13;5022827;28;20063;-51
2021/09/22 10:15:38;;;;;;;18.10;11.45;;;;;;;22.30;52.44;103005.53;5034042;28;20062;-56
2021/09/22 10:18:04;;;;;;;16.33;10.70;;;;;;;22.26;53.18;103005.50;5040077;28;20501;-53
2021/09/22 10:20:29;;;;;;;19.10;10.82;;;;;;;22.37;52.74;103010.81;5042186;28;20477;-53
2021/09/22 10:22:58;;;;;;;18.77;11.38;;;;;;;22.14;52.95;103002.88;5024717;28;20270;-54
2021/09/22 10:25:23;;;;;;;23.25;12.38;;;;;;;21.84;53.55;103003.72;5046781;28;20055;-48
2021/09/22 10:27:49;;;;;;;21.02;11.55;;;;;;;21.93;54.52;103007.28;5016932;28;20689;-50
2021/09/22 10:30:15;;;;;;;16.55;10.45;;;;;;;22.13;52.97;102994.91;5045533;28;20068;-51
2021/09/22 10:32:47;;;;;;;20.20;11.98;;;;;;;22.26;52.45;102999.34;5042805;28;20565;-53
2021/09/22 10:35:24;;;;;;;17.63;11.57;;;;;;;22.25;52.99;102995.78;5041735;28;20032;-53
2021/09/22 10:37:57;;;;;;;19.33;11.75;;;;;;;22.45;52.27;102984.22;5040179;28;20044;-53
2021/09/22 10:40:49;;;;;;;17.13;10.88;;;;;;;22.50;53.04;102978.03;5034851;28;20412;-56
2021/09/22 10:43:15;;;;;;;21.85;11.55;;;;;;;22.61;51.83;102989.50;5041950;28;20469;-52
2021/09/22 10:46:06;;;;;;;19.70;11.55;;;;;;;22.80;51.59;102986.81;5028844;28;20565;-52
2021/09/22 10:48:33;;;;;;;20.40;10.57;;;;;;;23.00;52.09;102992.91;5039476;28;20059;-50
2021/09/22 10:51:04;;;;;;;20.95;11.82;;;;;;;23.15;51.33;102979.53;5038974;28;20345;-51
2021/09/22 10:53:35;;;;;;;19.92;12.40;;;;;;;23.15;50.99;102968.91;5044654;28;20051;-49
2021/09/22 10:56:15;;;;;;;18.75;12.57;;;;;;;23.06;51.39;102960.97;5038914;28;20041;-51
2021/09/22 10:58:41;;;;;;;21.17;11.90;;;;;;;23.18;51.77;102963.56;5039238;28;20772;-52
2021/09/22 11:01:07;;;;;;;25.67;12.43;;;;;;;23.25;50.32;102965.28;5046210;28;20132;-53
2021/09/22 11:03:47;;;;;;;18.33;11.52;;;;;;;23.45;50.06;102954.50;5042725;28;20038;-52
2021/09/22 11:06:50;;;;;;;20.25;11.57;;;;;;;23.61;49.60;102957.97;5041535;28;20052;-54